createdAt,value
2023-11-15T00:00:10.364Z,6.65
2023-11-15T00:02:39.705Z,7.31
2023-11-15T00:05:10.377Z,6.70
2023-11-15T00:07:38.812Z,7.13
2023-11-15T00:10:08.209Z,7.29
2023-11-15T00:12:36.666Z,7.42
2023-11-15T00:15:05.778Z,7.04
2023-11-15T00:17:34.288Z,6.97
2023-11-15T00:20:05.106Z,6.36
2023-11-15T00:22:34.939Z,6.97
2023-11-15T00:25:03.260Z,7.05
2023-11-15T00:27:32.744Z,7.20
2023-11-15T00:30:02.074Z,7.07
2023-11-15T00:32:30.781Z,7.29
2023-11-15T00:34:59.140Z,7.17
2023-11-15T00:37:28.035Z,6.98
2023-11-15T00:39:59.511Z,6.98
2023-11-15T00:42:27.948Z,7.10
2023-11-15T00:44:56.418Z,6.57
2023-11-15T00:47:24.907Z,7.13
2023-11-15T00:49:53.320Z,6.87
2023-11-15T00:52:21.652Z,6.73
2023-11-15T00:54:49.915Z,6.34
2023-11-15T00:57:19.682Z,6.18
2023-11-15T00:59:54.273Z,6.92
2023-11-15T01:02:22.954Z,6.89
2023-11-15T01:04:52.214Z,6.45
2023-11-15T01:07:20.812Z,6.17
2023-11-15T01:09:49.488Z,6.79
2023-11-15T01:12:19.659Z,6.35
2023-11-15T01:14:48.202Z,6.76
2023-11-15T01:17:16.682Z,7.23
2023-11-15T01:19:46.180Z,7.09
2023-11-15T01:22:14.672Z,6.86
2023-11-15T01:24:43.197Z,6.45
2023-11-15T01:27:12.432Z,6.72
2023-11-15T01:29:42.096Z,6.96
2023-11-15T01:32:10.491Z,6.95
2023-11-15T01:34:38.943Z,6.69
2023-11-15T01:37:07.336Z,6.55
2023-11-15T01:39:35.713Z,6.73
2023-11-15T01:42:04.572Z,6.02
2023-11-15T01:44:35.310Z,6.60
2023-11-15T01:47:05.988Z,6.79
2023-11-15T01:49:34.553Z,6.46
2023-11-15T01:52:02.939Z,6.65
2023-11-15T01:54:32.002Z,6.36
2023-11-15T01:57:00.470Z,6.38
2023-11-15T01:59:29.290Z,6.80
2023-11-15T02:01:57.653Z,6.65
2023-11-15T02:04:27.766Z,6.92
2023-11-15T02:06:57.026Z,6.99
2023-11-15T02:09:26.094Z,7.07
2023-11-15T02:11:54.902Z,7.03
2023-11-15T02:14:23.565Z,6.64
2023-11-15T02:16:53.229Z,5.91
2023-11-15T02:19:21.882Z,7.08
2023-11-15T02:21:53.365Z,6.76
2023-11-15T02:24:23.195Z,6.87
2023-11-15T02:26:51.824Z,7.11
2023-11-15T02:29:20.231Z,7.15
2023-11-15T02:31:48.594Z,7.29
2023-11-15T02:34:17.043Z,7.19
2023-11-15T02:36:45.358Z,6.34
2023-11-15T02:39:14.125Z,7.06
2023-11-15T02:41:44.044Z,6.01
2023-11-15T02:44:12.427Z,7.31
2023-11-15T02:46:40.873Z,7.04
2023-11-15T02:49:09.323Z,6.41
2023-11-15T02:51:37.825Z,7.48
2023-11-15T02:54:06.456Z,6.35
2023-11-15T02:56:34.798Z,6.58
2023-11-15T02:59:04.621Z,7.04
2023-11-15T03:01:33.181Z,6.45
2023-11-15T03:04:01.595Z,6.59
2023-11-15T03:06:31.959Z,7.37
2023-11-15T03:09:00.329Z,7.02
2023-11-15T03:11:28.865Z,6.78
2023-11-15T03:13:57.991Z,6.42
2023-11-15T03:16:27.883Z,6.64
2023-11-15T03:18:56.375Z,6.73
2023-11-15T03:21:24.798Z,6.78
2023-11-15T03:23:53.290Z,7.27
2023-11-15T03:26:21.793Z,6.47
2023-11-15T03:28:50.264Z,7.19
2023-11-15T03:31:18.750Z,6.89
2023-11-15T03:33:49.419Z,6.41
2023-11-15T03:36:18.002Z,6.94
2023-11-15T03:38:46.522Z,6.82
2023-11-15T03:41:15.156Z,6.98
2023-11-15T03:43:43.759Z,6.87
2023-11-15T03:46:12.309Z,7.12
2023-11-15T03:48:40.911Z,7.05
2023-11-15T03:51:10.714Z,6.98
2023-11-15T03:53:39.792Z,6.66
2023-11-15T03:56:11.173Z,7.12
2023-11-15T03:58:39.653Z,7.02
2023-11-15T04:01:09.228Z,6.98
2023-11-15T04:03:37.874Z,6.82
2023-11-15T04:06:09.111Z,7.22
2023-11-15T04:08:38.980Z,6.01
2023-11-15T04:11:07.656Z,6.95
2023-11-15T04:13:37.374Z,5.63
2023-11-15T04:16:07.325Z,5.75
2023-11-15T04:18:36.928Z,6.75
2023-11-15T04:21:06.271Z,6.72
2023-11-15T04:23:34.725Z,5.99
2023-11-15T04:26:04.976Z,6.63
2023-11-15T04:28:34.653Z,6.57
2023-11-15T04:31:03.991Z,7.07
2023-11-15T04:33:32.483Z,6.72
2023-11-15T04:36:01.069Z,6.74
2023-11-15T04:38:29.562Z,6.62
2023-11-15T04:40:58.073Z,6.83
2023-11-15T04:43:27.843Z,6.26
2023-11-15T04:45:56.300Z,6.06
2023-11-15T04:48:24.778Z,6.65
2023-11-15T04:50:53.202Z,6.24
2023-11-15T04:53:21.597Z,6.43
2023-11-15T04:55:49.962Z,6.91
2023-11-15T04:58:18.272Z,6.38
2023-11-15T05:00:48.071Z,6.89
2023-11-15T05:03:16.526Z,6.90
2023-11-15T05:05:47.258Z,6.66
2023-11-15T05:08:15.781Z,6.93
2023-11-15T05:10:44.158Z,6.58
2023-11-15T05:13:12.704Z,6.61
2023-11-15T05:15:41.777Z,6.77
2023-11-15T05:18:11.615Z,6.52
2023-11-15T05:20:40.010Z,6.70
2023-11-15T05:23:08.446Z,6.88
2023-11-15T05:25:37.228Z,6.35
2023-11-15T05:28:06.770Z,6.28
2023-11-15T05:30:35.260Z,7.18
2023-11-15T05:33:03.752Z,6.92
2023-11-15T05:35:33.576Z,6.48
2023-11-15T05:38:02.126Z,6.93
2023-11-15T05:40:30.600Z,6.81
2023-11-15T05:42:58.963Z,6.25
2023-11-15T05:45:27.487Z,6.18
2023-11-15T05:47:55.933Z,6.31
2023-11-15T05:50:24.354Z,6.72
2023-11-15T05:52:54.677Z,6.29
2023-11-15T05:55:23.097Z,6.80
2023-11-15T05:57:51.542Z,6.59
2023-11-15T06:00:21.506Z,5.74
2023-11-15T06:02:51.208Z,6.69
2023-11-15T06:05:21.370Z,6.88
2023-11-15T06:07:49.760Z,6.71
2023-11-15T06:10:19.856Z,6.26
2023-11-15T06:12:48.296Z,6.96
2023-11-15T06:15:16.938Z,6.23
2023-11-15T06:17:45.505Z,7.02
2023-11-15T06:20:14.933Z,6.98
2023-11-15T06:22:43.237Z,5.85
2023-11-15T06:25:11.842Z,6.69
2023-11-15T06:27:41.533Z,6.40
2023-11-15T06:30:11.182Z,5.85
2023-11-15T06:32:40.720Z,6.50
2023-11-15T06:35:10.532Z,6.19
2023-11-15T06:37:39.271Z,6.29
2023-11-15T06:40:10.808Z,5.67
2023-11-15T06:42:39.113Z,6.24
2023-11-15T06:45:10.887Z,6.49
2023-11-15T06:47:39.414Z,6.42
2023-11-15T06:50:09.503Z,6.47
2023-11-15T06:52:40.075Z,6.23
2023-11-15T06:55:12.166Z,5.91
2023-11-15T06:57:42.866Z,6.39
2023-11-15T07:00:15.009Z,6.10
2023-11-15T07:02:43.639Z,6.59
2023-11-15T07:05:12.721Z,6.66
2023-11-15T07:07:41.453Z,5.70
2023-11-15T07:10:11.313Z,5.77
2023-11-15T07:12:41.633Z,6.30
2023-11-15T07:15:15.340Z,5.85
2023-11-15T07:17:44.052Z,6.07
2023-11-15T07:20:14.685Z,6.83
2023-11-15T07:22:43.029Z,6.73
2023-11-15T07:25:14.069Z,6.73
2023-11-15T07:27:42.478Z,5.84
2023-11-15T07:30:15.455Z,6.13
2023-11-15T07:32:44.139Z,5.87
2023-11-15T07:35:12.501Z,5.81
2023-11-15T07:37:41.930Z,6.55
2023-11-15T07:40:14.362Z,6.19
2023-11-15T07:42:43.028Z,6.32
2023-11-15T07:45:13.284Z,6.73
2023-11-15T07:47:45.053Z,6.07
2023-11-15T07:50:16.377Z,6.40
2023-11-15T07:52:46.420Z,5.79
2023-11-15T07:55:16.523Z,6.60
2023-11-15T07:57:45.078Z,5.72
2023-11-15T08:00:16.951Z,6.09
2023-11-15T08:02:45.960Z,6.13
2023-11-15T08:05:14.618Z,5.68
2023-11-15T08:07:43.079Z,5.52
2023-11-15T08:10:14.495Z,6.31
2023-11-15T08:12:45.519Z,5.83
2023-11-15T08:15:15.770Z,6.53
2023-11-15T08:17:44.775Z,6.19
2023-11-15T08:20:13.823Z,5.68
2023-11-15T08:22:43.157Z,6.68
2023-11-15T08:25:12.531Z,5.61
2023-11-15T08:27:41.831Z,5.98
2023-11-15T08:30:14.136Z,6.03
2023-11-15T08:32:44.250Z,6.44
2023-11-15T08:35:15.741Z,6.47
2023-11-15T08:37:44.100Z,6.51
2023-11-15T08:40:23.196Z,6.54
2023-11-15T08:42:58.121Z,6.77
2023-11-15T08:45:26.825Z,6.66
2023-11-15T08:47:58.956Z,6.43
2023-11-15T08:50:28.630Z,6.01
2023-11-15T08:52:57.667Z,5.94
2023-11-15T08:55:26.142Z,6.39
2023-11-15T08:57:54.710Z,5.71
2023-11-15T09:00:25.588Z,5.88
2023-11-15T09:02:54.131Z,6.02
2023-11-15T09:05:25.069Z,6.28
2023-11-15T09:07:54.603Z,6.56
2023-11-15T09:10:24.384Z,6.17
2023-11-15T09:12:53.894Z,6.79
2023-11-15T09:15:25.587Z,6.85
2023-11-15T09:17:54.224Z,6.70
2023-11-15T09:20:28.850Z,6.56
2023-11-15T09:22:59.384Z,6.79
2023-11-15T09:25:28.308Z,6.49
2023-11-15T09:28:03.921Z,6.75
2023-11-15T09:30:33.043Z,6.55
2023-11-15T09:33:04.741Z,6.41
2023-11-15T09:38:06.321Z,6.78
2023-11-15T09:40:34.600Z,6.66
2023-11-15T09:43:03.746Z,6.70
2023-11-15T09:45:34.599Z,6.71
2023-11-15T09:48:05.645Z,6.99
2023-11-15T09:50:37.521Z,7.07
2023-11-15T09:53:07.481Z,7.08
2023-11-15T09:55:36.172Z,6.97
2023-11-15T09:58:05.201Z,7.23
2023-11-15T10:00:33.850Z,7.17
2023-11-15T10:03:02.882Z,7.25
2023-11-15T10:05:33.422Z,7.34
2023-11-15T10:08:16.584Z,8.01
2023-11-15T10:10:48.919Z,8.02
2023-11-15T10:13:22.293Z,8.14
2023-11-15T10:15:52.150Z,8.18
2023-11-15T10:18:33.390Z,8.40
2023-11-15T10:21:13.194Z,8.04
2023-11-15T10:23:43.503Z,8.78
2023-11-15T10:26:12.761Z,8.58
2023-11-15T10:28:41.680Z,8.59
2023-11-15T10:31:14.807Z,9.00
2023-11-15T10:33:47.213Z,8.76
2023-11-15T10:36:18.892Z,8.80
2023-11-15T10:38:51.597Z,8.90
2023-11-15T10:41:22.454Z,7.83
2023-11-15T10:43:52.498Z,9.07
2023-11-15T10:46:27.986Z,8.47
2023-11-15T10:48:58.479Z,8.97
2023-11-15T10:51:31.146Z,8.99
2023-11-15T10:54:02.410Z,8.58
2023-11-15T10:56:34.285Z,8.93
2023-11-15T10:59:05.515Z,8.18
2023-11-15T11:01:35.485Z,8.64
2023-11-15T11:04:11.792Z,8.35
2023-11-15T11:06:48.967Z,8.64
2023-11-15T11:09:24.829Z,8.08
2023-11-15T11:12:01.152Z,8.51
2023-11-15T11:14:29.674Z,8.08
2023-11-15T11:16:58.531Z,8.45
2023-11-15T11:19:28.025Z,8.28
2023-11-15T11:22:09.005Z,7.75
2023-11-15T11:24:43.889Z,7.74
2023-11-15T11:27:32.746Z,7.48
2023-11-15T11:30:22.144Z,8.03
2023-11-15T11:32:51.938Z,7.87
2023-11-15T11:35:37.589Z,7.48
2023-11-15T11:38:06.209Z,7.05
2023-11-15T11:40:40.647Z,6.26
2023-11-15T11:43:23.212Z,6.30
2023-11-15T11:45:55.227Z,6.27
2023-11-15T11:48:26.537Z,6.33
2023-11-15T11:51:01.829Z,6.89
2023-11-15T11:53:30.196Z,7.58
2023-11-15T11:55:59.871Z,8.04
2023-11-15T11:58:30.815Z,8.68
2023-11-15T12:01:04.730Z,8.21
2023-11-15T12:03:36.933Z,9.04
2023-11-15T12:06:12.378Z,8.64
2023-11-15T12:08:48.726Z,8.68
2023-11-15T12:11:23.624Z,8.12
2023-11-15T12:13:54.022Z,8.52
2023-11-15T12:16:25.068Z,8.48
2023-11-15T12:19:07.221Z,8.27
2023-11-15T12:21:38.886Z,8.38
2023-11-15T12:24:11.406Z,8.07
2023-11-15T12:26:47.676Z,7.86
2023-11-15T12:29:24.516Z,7.95
2023-11-15T12:31:55.887Z,8.02
2023-11-15T12:34:25.662Z,7.65
2023-11-15T12:36:54.760Z,8.36
2023-11-15T12:39:24.007Z,8.45
2023-11-15T12:41:59.348Z,7.97
2023-11-15T12:44:27.874Z,7.10
2023-11-15T12:46:59.350Z,7.94
2023-11-15T12:49:28.989Z,7.65
2023-11-15T12:51:57.456Z,7.33
2023-11-15T12:54:25.904Z,7.12
2023-11-15T12:57:08.842Z,7.91
2023-11-15T12:59:39.029Z,7.45
2023-11-15T13:02:08.125Z,7.77
2023-11-15T13:04:47.886Z,7.38
2023-11-15T13:07:16.787Z,7.93
2023-11-15T13:09:45.461Z,7.88
2023-11-15T13:12:26.978Z,8.18
2023-11-15T13:14:56.538Z,8.16
2023-11-15T13:17:28.248Z,7.74
2023-11-15T13:20:00.608Z,8.02
2023-11-15T13:22:31.240Z,7.61
2023-11-15T13:24:59.623Z,8.47
2023-11-15T13:27:29.440Z,8.40
2023-11-15T13:29:58.198Z,8.06
2023-11-15T13:32:26.720Z,8.17
2023-11-15T13:34:55.475Z,9.00
2023-11-15T13:37:25.547Z,9.03
2023-11-15T13:39:53.803Z,9.13
2023-11-15T13:42:22.377Z,8.35
2023-11-15T13:44:52.182Z,8.28
2023-11-15T13:47:20.530Z,9.44
2023-11-15T13:49:49.113Z,8.62
2023-11-15T13:52:17.762Z,8.68
2023-11-15T13:54:47.609Z,9.01
2023-11-15T13:57:18.818Z,8.78
2023-11-15T13:59:48.204Z,9.13
2023-11-15T14:02:18.388Z,9.19
2023-11-15T14:04:46.709Z,9.24
2023-11-15T14:07:17.172Z,8.89
2023-11-15T14:09:46.818Z,8.71
2023-11-15T14:12:15.743Z,8.80
2023-11-15T14:14:45.442Z,8.36
2023-11-15T14:17:14.100Z,8.22
2023-11-15T14:19:43.926Z,7.81
2023-11-15T14:22:13.159Z,7.97
2023-11-15T14:24:41.730Z,7.86
2023-11-15T14:27:12.832Z,7.26
2023-11-15T14:29:42.888Z,7.52
2023-11-15T14:32:17.268Z,7.17
2023-11-15T14:34:47.190Z,7.10
2023-11-15T14:37:16.218Z,7.39
2023-11-15T14:39:44.591Z,6.18
2023-11-15T14:42:13.314Z,7.09
2023-11-15T14:44:42.311Z,7.19
2023-11-15T14:47:10.953Z,7.08
2023-11-15T14:49:39.366Z,7.10
2023-11-15T14:52:12.028Z,7.17
2023-11-15T14:54:47.141Z,7.19
2023-11-15T14:57:16.512Z,7.04
2023-11-15T14:59:47.853Z,7.27
2023-11-15T15:02:18.609Z,6.97
2023-11-15T15:04:49.293Z,6.97
2023-11-15T15:07:20.310Z,6.89
2023-11-15T15:09:48.755Z,6.27
2023-11-15T15:12:18.981Z,6.23
2023-11-15T15:14:47.979Z,6.66
2023-11-15T15:17:23.678Z,6.33
2023-11-15T15:19:55.416Z,6.62
2023-11-15T15:22:26.815Z,6.59
2023-11-15T15:24:55.426Z,6.23
2023-11-15T15:27:23.959Z,6.15
2023-11-15T15:29:52.475Z,5.95
2023-11-15T15:32:20.801Z,6.16
2023-11-15T15:34:49.118Z,6.39
2023-11-15T15:37:17.427Z,6.40
2023-11-15T15:39:47.145Z,5.97
2023-11-15T15:42:15.470Z,6.09
2023-11-15T15:44:43.796Z,5.45
2023-11-15T15:47:12.128Z,5.41
2023-11-15T15:49:46.348Z,5.60
2023-11-15T15:52:15.744Z,6.11
2023-11-15T15:54:44.738Z,5.50
2023-11-15T15:57:15.112Z,5.92
2023-11-15T15:59:43.695Z,5.88
2023-11-15T16:02:12.310Z,5.99
2023-11-15T16:04:42.800Z,5.85
2023-11-15T16:07:11.771Z,4.93
2023-11-15T16:09:42.727Z,5.47
2023-11-15T16:12:11.612Z,5.74
2023-11-15T16:14:41.428Z,5.42
2023-11-15T16:17:09.848Z,4.95
2023-11-15T16:19:38.224Z,5.10
2023-11-15T16:22:06.579Z,5.64
2023-11-15T16:24:34.928Z,4.87
2023-11-15T16:27:04.584Z,5.23
2023-11-15T16:29:34.294Z,5.01
2023-11-15T16:32:04.270Z,5.28
2023-11-15T16:34:33.072Z,4.29
2023-11-15T16:37:01.808Z,5.58
2023-11-15T16:39:30.076Z,4.31
2023-11-15T16:42:00.366Z,5.46
2023-11-15T16:44:30.901Z,5.56
2023-11-15T16:47:00.593Z,5.28
2023-11-15T16:49:30.427Z,5.22
2023-11-15T16:52:00.801Z,4.81
2023-11-15T16:54:31.283Z,5.28
2023-11-15T16:57:01.331Z,5.41
2023-11-15T16:59:29.691Z,4.44
2023-11-15T17:01:58.097Z,4.64
2023-11-15T17:04:26.520Z,5.49
2023-11-15T17:06:57.455Z,5.37
2023-11-15T17:09:26.054Z,5.28
2023-11-15T17:11:54.471Z,5.38
2023-11-15T17:14:23.191Z,4.74
2023-11-15T17:16:51.625Z,4.65
2023-11-15T17:19:21.026Z,5.29
2023-11-15T17:21:49.415Z,5.28
2023-11-15T17:24:20.192Z,5.29
2023-11-15T17:26:49.033Z,5.30
2023-11-15T17:29:17.424Z,5.33
2023-11-15T17:31:46.032Z,4.66
2023-11-15T17:34:15.394Z,4.94
2023-11-15T17:36:44.804Z,5.31
2023-11-15T17:39:15.657Z,4.87
2023-11-15T17:41:45.478Z,5.44
2023-11-15T17:44:16.056Z,5.46
2023-11-15T17:46:44.707Z,5.41
2023-11-15T17:49:13.986Z,4.62
2023-11-15T17:51:45.336Z,5.07
2023-11-15T17:54:15.600Z,4.22
2023-11-15T17:56:46.449Z,5.28
2023-11-15T17:59:15.171Z,4.83
2023-11-15T18:01:44.125Z,4.40
2023-11-15T18:04:16.310Z,5.05
2023-11-15T18:06:45.309Z,5.20
2023-11-15T18:09:13.882Z,5.57
2023-11-15T18:11:42.586Z,5.38
2023-11-15T18:14:12.633Z,5.52
2023-11-15T18:16:40.990Z,4.86
2023-11-15T18:19:10.109Z,5.67
2023-11-15T18:21:41.540Z,5.74
2023-11-15T18:24:12.613Z,5.83
2023-11-15T18:26:43.229Z,5.94
2023-11-15T18:29:13.051Z,5.68
2023-11-15T18:31:41.639Z,5.04
2023-11-15T18:34:10.763Z,5.63
2023-11-15T18:36:42.569Z,5.41
2023-11-15T18:39:15.799Z,5.82
2023-11-15T18:41:45.639Z,5.99
2023-11-15T18:44:17.496Z,5.93
2023-11-15T18:46:53.509Z,5.96
2023-11-15T18:49:24.178Z,6.08
2023-11-15T18:51:53.929Z,5.85
2023-11-15T18:54:23.287Z,6.22
2023-11-15T18:56:53.301Z,6.18
2023-11-15T18:59:23.475Z,6.10
2023-11-15T19:01:51.848Z,6.19
2023-11-15T19:04:20.535Z,6.19
2023-11-15T19:06:50.804Z,6.08
2023-11-15T19:09:23.323Z,6.08
2023-11-15T19:11:56.574Z,5.21
2023-11-15T19:14:29.775Z,5.51
2023-11-15T19:17:01.205Z,5.15
2023-11-15T19:19:29.907Z,5.26
2023-11-15T19:21:58.393Z,5.21
2023-11-15T19:24:26.945Z,4.78
2023-11-15T19:26:55.490Z,4.92
2023-11-15T19:29:23.985Z,4.60
2023-11-15T19:31:53.976Z,5.12
2023-11-15T19:34:24.385Z,4.55
2023-11-15T19:36:53.783Z,4.66
2023-11-15T19:39:22.226Z,5.17
2023-11-15T19:41:51.820Z,5.23
2023-11-15T19:44:20.197Z,5.39
2023-11-15T19:46:48.864Z,4.52
2023-11-15T19:49:20.766Z,4.48
2023-11-15T19:51:53.008Z,5.24
2023-11-15T19:54:22.086Z,5.46
2023-11-15T19:56:51.174Z,4.87
2023-11-15T19:59:19.618Z,5.13
2023-11-15T20:01:48.298Z,4.35
2023-11-15T20:04:20.570Z,4.38
2023-11-15T20:06:49.428Z,4.77
2023-11-15T20:09:17.776Z,4.50
2023-11-15T20:11:47.927Z,5.92
2023-11-15T20:14:16.451Z,5.91
2023-11-15T20:16:44.828Z,5.71
2023-11-15T20:19:14.148Z,4.94
2023-11-15T20:21:43.920Z,5.06
2023-11-15T20:24:12.441Z,5.69
2023-11-15T20:26:42.181Z,5.11
2023-11-15T20:29:11.683Z,5.66
2023-11-15T20:31:40.222Z,4.51
2023-11-15T20:34:09.100Z,4.69
2023-11-15T20:36:38.691Z,5.17
2023-11-15T20:39:21.609Z,5.07
2023-11-15T20:41:53.674Z,4.82
2023-11-15T20:44:22.343Z,5.81
2023-11-15T20:46:50.905Z,5.26
2023-11-15T20:49:19.412Z,5.75
2023-11-15T20:51:49.099Z,5.92
2023-11-15T20:54:22.106Z,5.65
2023-11-15T20:56:50.570Z,6.03
2023-11-15T20:59:19.322Z,5.67
2023-11-15T21:01:48.352Z,6.01
2023-11-15T21:04:21.153Z,5.66
2023-11-15T21:06:52.017Z,6.25
2023-11-15T21:09:24.827Z,6.18
2023-11-15T21:11:54.821Z,5.51
2023-11-15T21:14:23.338Z,5.64
2023-11-15T21:16:51.842Z,5.06
2023-11-15T21:19:20.477Z,5.77
2023-11-15T21:21:47.837Z,5.34
2023-11-15T21:24:16.513Z,5.25
2023-11-15T21:26:46.809Z,5.55
2023-11-15T21:29:15.235Z,5.15
2023-11-15T21:31:43.961Z,5.50
2023-11-15T21:34:12.491Z,6.07
2023-11-15T21:36:41.288Z,5.04
2023-11-15T21:39:10.742Z,5.99
2023-11-15T21:41:39.442Z,5.05
2023-11-15T21:44:09.536Z,5.57
2023-11-15T21:46:38.290Z,5.74
2023-11-15T21:49:06.920Z,5.99
2023-11-15T21:51:35.233Z,5.22
2023-11-15T21:54:03.832Z,6.12
2023-11-15T21:56:33.115Z,5.78
2023-11-15T21:59:01.490Z,5.78
2023-11-15T22:01:31.331Z,5.18
2023-11-15T22:03:59.716Z,5.90
2023-11-15T22:06:28.189Z,5.29
2023-11-15T22:08:56.563Z,5.40
2023-11-15T22:11:25.000Z,5.50
2023-11-15T22:13:53.394Z,5.23
2023-11-15T22:16:21.973Z,5.97
2023-11-15T22:18:51.724Z,5.60
2023-11-15T22:21:20.149Z,5.66
2023-11-15T22:23:50.989Z,5.90
2023-11-15T22:26:19.305Z,5.70
2023-11-15T22:28:47.810Z,5.53
2023-11-15T22:31:16.238Z,5.50
2023-11-15T22:33:44.639Z,5.51
2023-11-15T22:36:16.288Z,5.71
2023-11-15T22:38:45.456Z,5.32
2023-11-15T22:41:13.870Z,5.50
2023-11-15T22:43:42.438Z,5.26
2023-11-15T22:46:10.894Z,6.01
2023-11-15T22:48:39.321Z,5.99
2023-11-15T22:51:08.788Z,5.73
2023-11-15T22:53:39.855Z,5.62
2023-11-15T22:56:10.155Z,5.74
2023-11-15T22:58:38.532Z,5.74
2023-11-15T23:01:07.212Z,5.37
2023-11-15T23:03:35.997Z,5.73
2023-11-15T23:06:06.968Z,5.09
2023-11-15T23:08:35.319Z,5.79
2023-11-15T23:11:05.532Z,4.91
2023-11-15T23:13:33.946Z,5.30
2023-11-15T23:16:02.263Z,5.30
2023-11-15T23:18:30.778Z,5.25
2023-11-15T23:20:59.893Z,4.31
2023-11-15T23:23:28.329Z,5.02
2023-11-15T23:25:56.917Z,5.60
2023-11-15T23:28:27.997Z,5.22
2023-11-15T23:30:56.979Z,5.78
2023-11-15T23:33:25.604Z,5.77
2023-11-15T23:35:54.436Z,5.06
2023-11-15T23:38:25.885Z,5.80
2023-11-15T23:40:54.956Z,5.15
2023-11-15T23:43:23.277Z,5.54
2023-11-15T23:45:53.371Z,4.86
2023-11-15T23:48:22.167Z,5.78
2023-11-15T23:50:50.863Z,5.38
2023-11-15T23:53:19.274Z,4.69
2023-11-15T23:55:47.724Z,5.65
2023-11-15T23:58:17.278Z,5.30
